Time;durP1;ratioP1;P1;durP2;ratioP2;P2;SDS_P1;SDS_P2;PMS_P1;PMS_P2;Temp;Humidity;BMP_temperature;BMP_pressure;BME280_temperature;BME280_humidity;BME280_pressure;Samples;Min_cycle;Max_cycle;Signal;HPM_P1;HPM_P2
2021/12/20 00:01:44;;;;;;;;;;;;;;;5.82;59.50;99419.84;4423516;32;19993;-83
2021/12/20 00:04:10;;;;;;;;;;;;;;;5.77;59.50;99413.06;4423197;32;19992;-82
2021/12/20 00:06:35;;;;;;;;;;;;;;;5.92;59.51;99417.13;4410718;32;19981;-82
2021/12/20 00:09:01;;;;;;;;;;;;;;;5.98;59.50;99411.84;4411600;32;19996;-84
2021/12/20 00:11:26;;;;;;;;;;;;;;;5.92;59.51;99407.66;4424293;32;20046;-84
2021/12/20 00:13:51;;;;;;;;;;;;;;;5.85;59.50;99416.34;4424434;32;20645;-83
2021/12/20 00:16:16;;;;;;;;;;;;;;;5.95;59.51;99417.94;4411656;32;20003;-83
2021/12/20 00:18:43;;;;;;;;;;;;;;;5.86;59.50;99430.97;4411456;32;20057;-84
2021/12/20 00:24:25;;;;;;;;;;;;;;;;;;;;;
2021/12/20 00:30:30;;;;;;;;;;;;;;;6.19;59.51;99416.59;4408839;32;19978;-86
2021/12/20 00:32:55;;;;;;;;;;;;;;;6.30;59.53;99430.16;4415407;32;20438;-82
2021/12/20 00:35:24;;;;;;;;;;;;;;;6.34;59.53;99415.44;4414658;32;20134;-86
2021/12/20 00:40:39;;;;;;;;;;;;;;;6.23;59.53;99410.50;4430562;32;20039;-87
2021/12/20 00:43:04;;;;;;;;;;;;;;;6.27;59.52;99417.28;4414971;32;20007;-86
2021/12/20 00:45:31;;;;;;;;;;;;;;;6.34;59.53;99423.19;4414450;32;19994;-85
2021/12/20 00:47:56;;;;;;;;;;;;;;;6.41;59.53;99432.53;4427321;32;19970;-86
2021/12/20 00:50:22;;;;;;;;;;;;;;;6.52;59.54;99434.91;4415326;32;20025;-87
2021/12/20 00:52:50;;;;;;;;;;;;;;;6.45;59.54;99435.03;4427787;32;20009;-87
2021/12/20 00:55:49;;;;;;;;;;;;;;;;;;;;;
2021/12/20 00:58:14;;;;;;;;;;;;;;;6.54;59.54;99451.22;4440370;32;36627;-86
2021/12/20 01:00:43;;;;;;;;;;;;;;;6.58;59.55;99463.22;4413980;32;20013;-86
2021/12/20 01:03:08;;;;;;;;;;;;;;;6.54;59.54;99459.84;4415126;32;20325;-84
2021/12/20 01:08:41;;;;;;;;;;;;;;;6.13;59.52;99453.72;4434909;32;19977;-86
2021/12/20 01:11:06;;;;;;;;;;;;;;;6.31;59.53;99468.03;4415006;32;20620;-86
2021/12/20 01:13:33;;;;;;;;;;;;;;;6.26;59.52;99472.47;4413638;32;19990;-83
2021/12/20 01:16:01;;;;;;;;;;;;;;;6.19;59.52;99467.44;4437879;32;19996;-82
2021/12/20 01:18:26;;;;;;;;;;;;;;;6.07;59.51;99484.00;4425647;32;20255;-84
2021/12/20 01:20:51;;;;;;;;;;;;;;;6.29;59.53;99480.16;4425547;32;20020;-83
2021/12/20 01:23:17;;;;;;;;;;;;;;;6.25;59.52;99481.09;4425648;32;19998;-83
2021/12/20 01:25:43;;;;;;;;;;;;;;;6.36;59.53;99498.97;4425147;32;19989;-82
2021/12/20 01:28:08;;;;;;;;;;;;;;;6.17;59.52;99498.47;4424946;32;19986;-84
2021/12/20 01:30:33;;;;;;;;;;;;;;;6.25;59.52;99495.75;4425421;32;20033;-83
2021/12/20 01:33:01;;;;;;;;;;;;;;;6.26;59.52;99495.72;4412531;32;20378;-86
2021/12/20 01:35:26;;;;;;;;;;;;;;;6.27;59.52;99499.16;4426182;32;20314;-84
2021/12/20 01:37:52;;;;;;;;;;;;;;;6.35;59.54;99498.13;4413121;32;20004;-84
2021/12/20 01:40:17;;;;;;;;;;;;;;;6.41;59.53;99492.00;4412599;32;20009;-83
2021/12/20 01:42:43;;;;;;;;;;;;;;;6.13;59.52;99487.31;4425886;32;20259;-85
2021/12/20 01:45:12;;;;;;;;;;;;;;;6.22;59.53;99472.56;4425470;32;20024;-83
2021/12/20 01:47:42;;;;;;;;;;;;;;;6.21;59.53;99461.38;4424830;32;20038;-83
2021/12/20 01:50:16;;;;;;;;;;;;;;;6.09;59.52;99480.50;4438900;32;19991;-83
2021/12/20 01:52:43;;;;;;;;;;;;;;;6.20;59.51;99487.25;4438912;32;19985;-82
2021/12/20 01:55:16;;;;;;;;;;;;;;;6.01;59.51;99473.78;4438872;32;19966;-83
2021/12/20 01:57:41;;;;;;;;;;;;;;;5.78;59.50;99480.19;4425123;32;19981;-83
2021/12/20 02:00:08;;;;;;;;;;;;;;;5.69;59.50;99485.50;4425667;32;19996;-86
2021/12/20 02:02:33;;;;;;;;;;;;;;;5.79;59.50;99488.78;4414471;32;20026;-85
2021/12/20 02:05:09;;;;;;;;;;;;;;;5.58;59.49;99517.53;4426883;32;19970;-85
2021/12/20 02:07:49;;;;;;;;;;;;;;;5.65;59.49;99506.22;4427553;32;20031;-86
2021/12/20 02:10:14;;;;;;;;;;;;;;;5.59;59.49;99504.59;4426928;32;19993;-84
2021/12/20 02:12:40;;;;;;;;;;;;;;;5.62;59.49;99506.25;4426908;32;20000;-87
2021/12/20 02:15:05;;;;;;;;;;;;;;;5.63;59.49;99505.37;4425676;32;20303;-85
2021/12/20 02:17:30;;;;;;;;;;;;;;;5.54;59.49;99504.66;4426223;32;20269;-85
2021/12/20 02:19:58;;;;;;;;;;;;;;;5.65;59.49;99516.53;4425407;32;24881;-84
2021/12/20 02:22:23;;;;;;;;;;;;;;;5.81;59.50;99515.44;4426339;32;20015;-86
2021/12/20 02:24:49;;;;;;;;;;;;;;;5.79;59.50;99525.78;4425401;32;21704;-84
2021/12/20 02:27:15;;;;;;;;;;;;;;;5.73;59.49;99538.81;4425216;32;20337;-84
2021/12/20 02:30:02;;;;;;;;;;;;;;;5.76;59.50;99536.16;4425024;32;20040;-84
2021/12/20 02:37:56;;;;;;;;;;;;;;;5.62;59.49;99532.09;4427045;32;20011;-84
2021/12/20 02:40:22;;;;;;;;;;;;;;;5.56;59.48;99538.19;4438627;32;20258;-83
2021/12/20 02:42:49;;;;;;;;;;;;;;;5.46;59.49;99537.50;4424777;32;20015;-83
2021/12/20 02:45:15;;;;;;;;;;;;;;;5.69;59.50;99541.47;4424511;32;20001;-82
2021/12/20 02:47:42;;;;;;;;;;;;;;;5.61;59.48;99545.88;4437173;32;19981;-83
2021/12/20 02:50:07;;;;;;;;;;;;;;;5.53;59.49;99538.25;4423712;32;19994;-83
2021/12/20 02:52:32;;;;;;;;;;;;;;;5.42;59.48;99534.97;4423980;32;20404;-83
2021/12/20 02:54:58;;;;;;;;;;;;;;;5.29;59.47;99561.84;4424029;32;20362;-82
2021/12/20 02:57:23;;;;;;;;;;;;;;;5.27;59.47;99561.00;4438700;32;20255;-82
2021/12/20 02:59:48;;;;;;;;;;;;;;;5.32;59.48;99569.53;4424274;32;20039;-82
2021/12/20 03:02:13;;;;;;;;;;;;;;;5.28;59.47;99568.72;4425438;32;20021;-84
2021/12/20 03:04:39;;;;;;;;;;;;;;;5.17;59.47;99574.00;4425486;32;19985;-83
2021/12/20 03:07:05;;;;;;;;;;;;;;;5.19;59.47;99580.00;4425582;32;19989;-84
2021/12/20 03:09:33;;;;;;;;;;;;;;;5.21;59.46;99585.16;4426678;32;19985;-84
2021/12/20 03:11:59;;;;;;;;;;;;;;;5.01;59.45;99584.56;4426744;32;20384;-84
2021/12/20 03:14:32;;;;;;;;;;;;;;;5.01;59.45;99587.16;4426665;32;19973;-85
2021/12/20 03:16:57;;;;;;;;;;;;;;;4.98;59.45;99575.13;4426871;32;19973;-85
2021/12/20 03:19:22;;;;;;;;;;;;;;;4.91;59.45;99582.06;4426102;32;20278;-85
2021/12/20 03:21:47;;;;;;;;;;;;;;;4.79;59.45;99578.81;4425170;32;20730;-84
2021/12/20 03:24:13;;;;;;;;;;;;;;;4.39;59.42;99573.19;4425785;32;20015;-85
2021/12/20 03:26:38;;;;;;;;;;;;;;;4.43;59.43;99568.00;4425207;32;20317;-85
2021/12/20 03:29:03;;;;;;;;;;;;;;;4.36;59.42;99576.66;4412096;32;20328;-84
2021/12/20 03:31:29;;;;;;;;;;;;;;;4.44;59.43;99581.75;4425264;32;20334;-85
2021/12/20 03:33:54;;;;;;;;;;;;;;;4.35;59.42;99582.69;4439357;32;20040;-84
2021/12/20 03:36:19;;;;;;;;;;;;;;;4.22;59.41;99586.25;4425069;32;20290;-85
2021/12/20 03:38:44;;;;;;;;;;;;;;;4.05;59.41;99588.97;4425516;32;20291;-84
2021/12/20 03:41:10;;;;;;;;;;;;;;;4.07;59.40;99584.66;4426140;32;20029;-85
2021/12/20 03:43:35;;;;;;;;;;;;;;;3.98;59.40;99590.72;4425267;32;22870;-83
2021/12/20 03:46:03;;;;;;;;;;;;;;;4.01;59.40;99588.13;4411457;32;20012;-83
2021/12/20 03:48:29;;;;;;;;;;;;;;;4.11;59.40;99595.78;4438521;32;20248;-84
2021/12/20 03:50:55;;;;;;;;;;;;;;;4.06;59.41;99607.88;4437891;32;20055;-84
2021/12/20 03:53:20;;;;;;;;;;;;;;;4.00;59.40;99607.03;4425270;32;20653;-85
2021/12/20 03:55:45;;;;;;;;;;;;;;;4.07;59.41;99605.28;4438919;32;20004;-84
2021/12/20 03:58:10;;;;;;;;;;;;;;;4.04;59.40;99613.03;4425047;32;20042;-84
2021/12/20 04:00:35;;;;;;;;;;;;;;;4.09;59.40;99625.88;4424282;32;20007;-84
2021/12/20 04:03:04;;;;;;;;;;;;;;;4.14;59.41;99635.25;4439795;32;19988;-83
2021/12/20 04:05:29;;;;;;;;;;;;;;;4.18;59.41;99629.22;4426864;32;20327;-84
2021/12/20 04:07:54;;;;;;;;;;;;;;;4.19;59.40;99627.47;4426462;32;19978;-84
2021/12/20 04:10:20;;;;;;;;;;;;;;;4.25;59.41;99624.84;4441274;32;19989;-85
2021/12/20 04:12:45;;;;;;;;;;;;;;;4.07;59.40;99631.03;4428053;32;20326;-84
2021/12/20 04:15:10;;;;;;;;;;;;;;;3.95;59.39;99636.25;4428186;32;19992;-86
2021/12/20 04:17:35;;;;;;;;;;;;;;;3.89;59.39;99633.72;4427997;32;20004;-85
2021/12/20 04:20:01;;;;;;;;;;;;;;;3.98;59.41;99628.50;4427746;32;19977;-86
2021/12/20 04:22:26;;;;;;;;;;;;;;;3.98;59.41;99631.06;4427575;32;19992;-85
2021/12/20 04:24:51;;;;;;;;;;;;;;;3.91;59.40;99630.28;4427119;32;20004;-85
2021/12/20 04:27:16;;;;;;;;;;;;;;;3.70;59.38;99633.00;4427662;32;19973;-85
2021/12/20 04:29:42;;;;;;;;;;;;;;;3.60;59.37;99637.34;4441025;32;20322;-84
2021/12/20 04:32:07;;;;;;;;;;;;;;;3.58;59.37;99648.53;4427066;32;20242;-84
2021/12/20 04:34:32;;;;;;;;;;;;;;;3.68;59.38;99648.44;4427080;32;19981;-84
2021/12/20 04:36:57;;;;;;;;;;;;;;;3.75;59.38;99643.25;4414363;32;19986;-84
2021/12/20 04:39:27;;;;;;;;;;;;;;;3.77;59.39;99657.81;4427312;32;19992;-85
2021/12/20 04:41:52;;;;;;;;;;;;;;;3.64;59.38;99659.63;4427178;32;19977;-85
2021/12/20 04:44:18;;;;;;;;;;;;;;;3.56;59.38;99657.97;4426929;32;20311;-84
2021/12/20 04:46:43;;;;;;;;;;;;;;;3.59;59.37;99663.09;4426802;32;20594;-84
2021/12/20 04:49:08;;;;;;;;;;;;;;;3.49;59.37;99659.69;4427292;32;20020;-84
2021/12/20 04:51:33;;;;;;;;;;;;;;;3.45;59.36;99658.00;4427574;32;20047;-84
2021/12/20 04:53:59;;;;;;;;;;;;;;;3.18;59.35;99658.13;4426625;32;19992;-84
2021/12/20 04:56:24;;;;;;;;;;;;;;;3.20;59.36;99656.41;4426106;32;20036;-84
2021/12/20 04:58:49;;;;;;;;;;;;;;;3.22;59.35;99663.25;4439197;32;20005;-83
2021/12/20 05:01:14;;;;;;;;;;;;;;;3.26;59.36;99672.66;4439241;32;19974;-83
2021/12/20 05:03:40;;;;;;;;;;;;;;;3.28;59.36;99670.06;4439734;32;20353;-82
2021/12/20 05:06:05;;;;;;;;;;;;;;;3.34;59.36;99672.66;4425561;32;20228;-82
2021/12/20 05:08:36;;;;;;;;;;;;;;;3.37;59.36;99681.19;4424691;32;22850;-82
2021/12/20 05:11:03;;;;;;;;;;;;;;;3.38;59.36;99679.50;4425935;32;20396;-82
2021/12/20 05:13:29;;;;;;;;;;;;;;;3.42;59.37;99690.63;4424892;32;19985;-83
2021/12/20 05:15:54;;;;;;;;;;;;;;;3.50;59.37;99687.13;4425257;32;20047;-82
2021/12/20 05:18:19;;;;;;;;;;;;;;;3.48;59.37;99698.31;4424832;32;21252;-83
2021/12/20 05:20:44;;;;;;;;;;;;;;;3.52;59.37;99700.84;4425155;32;19992;-83
2021/12/20 05:23:10;;;;;;;;;;;;;;;3.37;59.36;99711.22;4425337;32;20360;-84
2021/12/20 05:25:35;;;;;;;;;;;;;;;3.34;59.36;99712.09;4425504;32;20265;-85
2021/12/20 05:28:01;;;;;;;;;;;;;;;3.36;59.36;99712.09;4426747;32;19985;-85
2021/12/20 05:30:26;;;;;;;;;;;;;;;3.52;59.37;99716.28;4426710;32;19973;-85
2021/12/20 05:32:51;;;;;;;;;;;;;;;3.54;59.38;99719.72;4413788;32;20367;-85
2021/12/20 05:35:17;;;;;;;;;;;;;;;3.37;59.36;99717.22;4440732;32;19977;-84
2021/12/20 05:37:42;;;;;;;;;;;;;;;3.66;59.38;99718.81;4425629;32;20002;-84
2021/12/20 05:40:08;;;;;;;;;;;;;;;3.56;59.38;99720.59;4426088;32;20376;-85
2021/12/20 05:42:33;;;;;;;;;;;;;;;3.66;59.38;99731.69;4427037;32;20068;-86
2021/12/20 05:44:59;;;;;;;;;;;;;;;3.58;59.37;99720.59;4425731;32;19989;-84
2021/12/20 05:47:24;;;;;;;;;;;;;;;3.63;59.38;99729.13;4439447;32;20056;-84
2021/12/20 05:49:49;;;;;;;;;;;;;;;3.61;59.38;99726.56;4439442;32;20008;-83
2021/12/20 05:52:15;;;;;;;;;;;;;;;3.70;59.38;99729.09;4439498;32;20019;-84
2021/12/20 05:54:40;;;;;;;;;;;;;;;3.67;59.37;99739.41;4425164;32;20251;-83
2021/12/20 05:57:05;;;;;;;;;;;;;;;3.65;59.38;99746.28;4425228;32;20007;-83
2021/12/20 05:59:30;;;;;;;;;;;;;;;3.67;59.38;99751.41;4424941;32;21968;-83
2021/12/20 06:01:55;;;;;;;;;;;;;;;3.68;59.39;99759.13;4425135;32;20035;-83
2021/12/20 06:04:21;;;;;;;;;;;;;;;3.60;59.37;99760.88;4438711;32;23884;-83
2021/12/20 06:06:46;;;;;;;;;;;;;;;3.50;59.37;99756.63;4438579;32;22948;-83
2021/12/20 06:09:11;;;;;;;;;;;;;;;3.33;59.36;99772.13;4425377;32;19985;-83
2021/12/20 06:11:36;;;;;;;;;;;;;;;3.19;59.36;99770.44;4424825;32;22969;-84
2021/12/20 06:14:02;;;;;;;;;;;;;;;3.41;59.36;99776.38;4424913;32;23572;-84
2021/12/20 06:16:27;;;;;;;;;;;;;;;3.47;59.37;99772.06;4425125;32;22249;-83
2021/12/20 06:18:53;;;;;;;;;;;;;;;3.30;59.35;99774.69;4425557;32;19993;-83
2021/12/20 06:21:18;;;;;;;;;;;;;;;3.33;59.37;99782.41;4438758;32;20701;-84
2021/12/20 06:23:44;;;;;;;;;;;;;;;3.12;59.35;99782.44;4439519;32;20013;-83
2021/12/20 06:26:09;;;;;;;;;;;;;;;3.23;59.35;99788.41;4412435;32;20012;-84
2021/12/20 06:28:34;;;;;;;;;;;;;;;3.19;59.35;99789.28;4425917;32;19970;-84
2021/12/20 06:31:00;;;;;;;;;;;;;;;3.28;59.36;99793.56;4426049;32;19969;-85
2021/12/20 06:33:25;;;;;;;;;;;;;;;3.11;59.35;99791.03;4425945;32;20016;-85
2021/12/20 06:35:51;;;;;;;;;;;;;;;3.24;59.36;99792.69;4440101;32;20353;-85
2021/12/20 06:38:19;;;;;;;;;;;;;;;3.26;59.36;99797.84;4426645;32;19974;-85
2021/12/20 06:40:45;;;;;;;;;;;;;;;3.43;59.36;99797.81;4427242;32;19965;-85
2021/12/20 06:43:10;;;;;;;;;;;;;;;3.28;59.36;99801.28;4439702;32;20255;-84
2021/12/20 06:45:35;;;;;;;;;;;;;;;2.99;59.34;99801.31;4425139;32;20297;-84
2021/12/20 06:48:00;;;;;;;;;;;;;;;3.10;59.35;99806.47;4425202;32;20302;-87
2021/12/20 06:50:26;;;;;;;;;;;;;;;3.27;59.36;99807.28;4426040;32;20007;-86
2021/12/20 06:52:51;;;;;;;;;;;;;;;3.37;59.36;99816.72;4425511;32;20003;-84
2021/12/20 06:55:16;;;;;;;;;;;;;;;3.30;59.35;99822.69;4438983;32;19996;-82
2021/12/20 06:57:41;;;;;;;;;;;;;;;3.39;59.37;99812.41;4412126;32;20346;-84
2021/12/20 07:00:07;;;;;;;;;;;;;;;3.37;59.36;99812.41;4438015;32;19969;-85
2021/12/20 07:02:32;;;;;;;;;;;;;;;3.48;59.37;99807.22;4439638;32;19981;-84
2021/12/20 07:04:57;;;;;;;;;;;;;;;3.59;59.37;99809.78;4425744;32;20438;-84
2021/12/20 07:07:22;;;;;;;;;;;;;;;3.57;59.37;99816.66;4439801;32;19988;-84
2021/12/20 07:09:48;;;;;;;;;;;;;;;3.57;59.37;99821.81;4437745;32;19993;-84
2021/12/20 07:12:13;;;;;;;;;;;;;;;3.63;59.38;99829.50;4412661;32;19986;-85
2021/12/20 07:14:39;;;;;;;;;;;;;;;3.55;59.37;99824.41;4425589;32;20034;-85
2021/12/20 07:17:04;;;;;;;;;;;;;;;3.61;59.38;99831.25;4425142;32;19977;-85
2021/12/20 07:19:29;;;;;;;;;;;;;;;3.60;59.38;99826.94;4439363;32;20213;-84
2021/12/20 07:21:55;;;;;;;;;;;;;;;3.66;59.38;99825.22;4437969;32;19993;-84
2021/12/20 07:24:20;;;;;;;;;;;;;;;3.53;59.38;99820.94;4424873;32;19990;-83
2021/12/20 07:26:45;;;;;;;;;;;;;;;3.63;59.38;99820.06;4424516;32;19989;-84
2021/12/20 07:29:11;;;;;;;;;;;;;;;3.81;59.38;99820.88;4425250;32;20392;-83
2021/12/20 07:31:36;;;;;;;;;;;;;;;3.77;59.39;99819.16;4424959;32;20004;-84
2021/12/20 07:34:01;;;;;;;;;;;;;;;3.81;59.38;99815.72;4424111;32;19981;-83
2021/12/20 07:36:26;;;;;;;;;;;;;;;3.81;59.38;99819.16;4423551;32;19977;-84
2021/12/20 07:38:52;;;;;;;;;;;;;;;3.81;59.38;99813.16;4438728;32;20008;-84
2021/12/20 07:41:20;;;;;;;;;;;;;;;3.78;59.39;99806.28;4425217;32;19988;-84
2021/12/20 07:43:46;;;;;;;;;;;;;;;3.68;59.37;99807.19;4425125;32;19993;-84
2021/12/20 07:46:11;;;;;;;;;;;;;;;3.78;59.39;99795.97;4425334;32;20026;-84
2021/12/20 07:48:36;;;;;;;;;;;;;;;3.64;59.38;99808.06;4424095;32;19992;-83
2021/12/20 07:51:02;;;;;;;;;;;;;;;3.51;59.37;99812.38;4411685;32;19990;-84
2021/12/20 07:53:27;;;;;;;;;;;;;;;3.55;59.37;99819.25;4424460;32;20005;-83
2021/12/20 07:55:52;;;;;;;;;;;;;;;3.65;59.38;99814.91;4424636;32;19974;-84
2021/12/20 07:58:17;;;;;;;;;;;;;;;3.89;59.39;99814.84;4424512;32;19974;-84
2021/12/20 08:00:43;;;;;;;;;;;;;;;4.10;59.40;99820.75;4424283;32;19996;-84
2021/12/20 08:03:09;;;;;;;;;;;;;;;4.09;59.40;99830.22;4438595;32;20325;-84
2021/12/20 08:05:34;;;;;;;;;;;;;;;4.09;59.40;99834.50;4424634;32;20314;-83
2021/12/20 08:07:59;;;;;;;;;;;;;;;4.16;59.41;99828.44;4423877;32;20020;-84
2021/12/20 08:10:25;;;;;;;;;;;;;;;4.22;59.41;99837.00;4424094;32;20005;-83
2021/12/20 08:12:50;;;;;;;;;;;;;;;3.85;59.39;99841.47;4438002;32;20315;-81
2021/12/20 08:15:16;;;;;;;;;;;;;;;3.97;59.39;99837.97;4423399;32;19982;-82
2021/12/20 08:17:41;;;;;;;;;;;;;;;4.18;59.41;99837.03;4436251;32;20272;-83
2021/12/20 08:20:06;;;;;;;;;;;;;;;4.38;59.42;99842.06;4437477;32;19984;-83
2021/12/20 08:22:32;;;;;;;;;;;;;;;4.43;59.43;99830.88;4423515;32;20001;-84
2021/12/20 08:24:57;;;;;;;;;;;;;;;4.18;59.40;99837.03;4437861;32;19985;-84
2021/12/20 08:27:23;;;;;;;;;;;;;;;4.29;59.42;99848.16;4423231;32;19993;-84
2021/12/20 08:29:48;;;;;;;;;;;;;;;4.21;59.41;99839.56;4423368;32;20243;-84
2021/12/20 08:32:13;;;;;;;;;;;;;;;4.37;59.42;99836.06;4423399;32;20315;-83
2021/12/20 08:34:38;;;;;;;;;;;;;;;4.37;59.42;99837.78;4423396;32;20453;-84
2021/12/20 08:37:03;;;;;;;;;;;;;;;4.36;59.42;99842.09;4423373;32;20012;-81
2021/12/20 08:39:29;;;;;;;;;;;;;;;4.40;59.42;99843.78;4423568;32;19990;-84
2021/12/20 08:41:54;;;;;;;;;;;;;;;4.07;59.40;99844.81;4423433;32;20383;-83
2021/12/20 08:44:20;;;;;;;;;;;;;;;4.09;59.40;99835.34;4422957;32;19989;-83
2021/12/20 08:46:45;;;;;;;;;;;;;;;4.18;59.40;99840.44;4422988;32;19973;-84
2021/12/20 08:49:14;;;;;;;;;;;;;;;4.14;59.41;99836.19;4424315;32;20024;-83
2021/12/20 08:51:39;;;;;;;;;;;;;;;4.28;59.42;99833.56;4425629;32;20001;-83
2021/12/20 08:54:04;;;;;;;;;;;;;;;4.08;59.40;99850.81;4425208;32;20028;-84
2021/12/20 08:56:30;;;;;;;;;;;;;;;4.26;59.41;99823.25;4439267;32;19986;-83
2021/12/20 08:58:55;;;;;;;;;;;;;;;4.20;59.40;99819.84;4439176;32;21509;-84
2021/12/20 09:01:21;;;;;;;;;;;;;;;4.49;59.42;99823.09;4425526;32;20005;-85
2021/12/20 09:03:46;;;;;;;;;;;;;;;4.51;59.42;99833.41;4424949;32;20031;-83
2021/12/20 09:06:13;;;;;;;;;;;;;;;4.29;59.42;99841.28;4424980;32;20318;-82
2021/12/20 09:08:39;;;;;;;;;;;;;;;4.36;59.42;99849.81;4424995;32;20013;-84
2021/12/20 09:11:04;;;;;;;;;;;;;;;4.46;59.42;99843.75;4425006;32;19989;-82
2021/12/20 09:13:29;;;;;;;;;;;;;;;4.70;59.43;99850.47;4425752;32;20040;-84
2021/12/20 09:15:59;;;;;;;;;;;;;;;4.81;59.45;99860.72;4425205;32;19995;-85
2021/12/20 09:18:25;;;;;;;;;;;;;;;5.04;59.46;99843.34;4439750;32;20611;-83
2021/12/20 09:20:51;;;;;;;;;;;;;;;4.90;59.45;99834.84;4425244;32;19993;-83
2021/12/20 09:23:17;;;;;;;;;;;;;;;4.92;59.45;99846.00;4425373;32;20004;-84
2021/12/20 09:25:43;;;;;;;;;;;;;;;5.04;59.46;99852.81;4439814;32;19973;-83
2021/12/20 09:28:10;;;;;;;;;;;;;;;4.83;59.44;99856.41;4439504;32;19986;-85
2021/12/20 09:30:35;;;;;;;;;;;;;;;4.68;59.44;99841.03;4425665;32;19993;-82
2021/12/20 09:33:00;;;;;;;;;;;;;;;4.56;59.43;99849.72;4439164;32;20307;-82
2021/12/20 09:35:26;;;;;;;;;;;;;;;4.80;59.45;99843.53;4425165;32;20343;-83
2021/12/20 09:37:51;;;;;;;;;;;;;;;5.01;59.46;99845.97;4437601;32;19978;-82
2021/12/20 09:40:17;;;;;;;;;;;;;;;5.02;59.46;99839.06;4424767;32;20024;-83
2021/12/20 09:42:49;;;;;;;;;;;;;;;4.86;59.44;99843.47;4412479;32;20026;-83
2021/12/20 09:45:18;;;;;;;;;;;;;;;4.83;59.44;99840.94;4425415;32;20461;-84
2021/12/20 09:47:43;;;;;;;;;;;;;;;4.87;59.45;99846.06;4425449;32;20039;-82
2021/12/20 09:50:09;;;;;;;;;;;;;;;4.70;59.44;99841.87;4438537;32;20339;-82
2021/12/20 09:52:34;;;;;;;;;;;;;;;4.91;59.45;99836.56;4438996;32;20058;-85
2021/12/20 09:54:59;;;;;;;;;;;;;;;4.86;59.44;99820.28;4424106;32;24339;-80
2021/12/20 09:57:24;;;;;;;;;;;;;;;4.83;59.44;99828.03;4423796;32;20071;-83
2021/12/20 09:59:50;;;;;;;;;;;;;;;4.81;59.44;99843.53;4423197;32;19997;-81
2021/12/20 10:02:15;;;;;;;;;;;;;;;4.93;59.45;99827.09;4423858;32;19981;-82
2021/12/20 10:04:41;;;;;;;;;;;;;;;4.98;59.45;99838.25;4424539;32;19996;-82
2021/12/20 10:07:06;;;;;;;;;;;;;;;5.04;59.45;99822.72;4425185;32;20377;-85
2021/12/20 10:09:34;;;;;;;;;;;;;;;5.01;59.46;99827.91;4425188;32;20160;-83
2021/12/20 10:12:18;;;;;;;;;;;;;;;4.96;59.45;99832.22;4439388;32;20315;-85
2021/12/20 10:15:02;;;;;;;;;;;;;;;5.23;59.46;99829.44;4439913;32;20016;-84
2021/12/20 10:17:29;;;;;;;;;;;;;;;5.09;59.46;99843.31;4439639;32;20041;-83
2021/12/20 10:19:55;;;;;;;;;;;;;;;4.88;59.45;99828.84;4425686;32;20432;-84
2021/12/20 10:22:24;;;;;;;;;;;;;;;5.01;59.46;99848.53;4425233;32;19977;-84
2021/12/20 10:24:49;;;;;;;;;;;;;;;5.18;59.47;99849.22;4425441;32;20076;-84
2021/12/20 10:27:31;;;;;;;;;;;;;;;4.94;59.45;99858.03;4425006;32;20907;-84
2021/12/20 10:29:56;;;;;;;;;;;;;;;5.09;59.46;99856.22;4426205;32;19984;-83
2021/12/20 10:32:40;;;;;;;;;;;;;;;5.23;59.46;99856.97;4424876;32;19982;-83
2021/12/20 10:35:25;;;;;;;;;;;;;;;5.36;59.47;99860.28;4424488;32;20052;-82
2021/12/20 10:37:50;;;;;;;;;;;;;;;5.57;59.48;99866.97;4424985;32;19996;-83
2021/12/20 10:40:15;;;;;;;;;;;;;;;5.54;59.47;99878.19;4439107;32;19981;-83
2021/12/20 10:42:40;;;;;;;;;;;;;;;5.57;59.48;99875.56;4424360;32;20350;-81
2021/12/20 10:45:09;;;;;;;;;;;;;;;5.65;59.49;99872.88;4424474;32;20004;-80
2021/12/20 10:47:34;;;;;;;;;;;;;;;5.42;59.48;99873.09;4438452;32;19996;-81
2021/12/20 10:50:20;;;;;;;;;;;;;;;5.58;59.49;99881.56;4438283;32;19984;-83
2021/12/20 10:52:46;;;;;;;;;;;;;;;5.75;59.49;99884.84;4424642;32;19965;-83
2021/12/20 10:55:11;;;;;;;;;;;;;;;5.78;59.50;99879.66;4423965;32;20349;-83
2021/12/20 10:57:36;;;;;;;;;;;;;;;5.83;59.51;99881.31;4423694;32;20005;-82
2021/12/20 11:00:15;;;;;;;;;;;;;;;5.78;59.50;99884.81;4424221;32;20049;-82
2021/12/20 11:03:16;;;;;;;;;;;;;;;5.67;59.49;99886.63;4423994;32;20369;-83
2021/12/20 11:05:59;;;;;;;;;;;;;;;5.74;59.49;99867.66;4425813;32;20039;-82
2021/12/20 11:11:11;;;;;;;;;;;;;;;5.80;59.50;99871.00;4422713;32;20052;-83
2021/12/20 11:13:39;;;;;;;;;;;;;;;5.87;59.50;99877.81;4409416;32;20026;-83
2021/12/20 11:16:26;;;;;;;;;;;;;;;5.87;59.50;99875.22;4409662;32;20079;-84
2021/12/20 11:19:07;;;;;;;;;;;;;;;5.77;59.50;99862.44;4409670;32;20298;-84
2021/12/20 11:21:35;;;;;;;;;;;;;;;5.60;59.48;99875.53;4422335;32;20003;-83
2021/12/20 11:24:01;;;;;;;;;;;;;;;5.55;59.49;99848.91;4409727;32;20012;-85
2021/12/20 11:26:27;;;;;;;;;;;;;;;5.42;59.48;99867.94;4409286;32;20037;-82
2021/12/20 11:28:53;;;;;;;;;;;;;;;5.44;59.48;99876.53;4396932;32;20022;-82
2021/12/20 11:31:18;;;;;;;;;;;;;;;5.61;59.49;99866.91;4409174;32;20323;-82
2021/12/20 11:33:43;;;;;;;;;;;;;;;5.45;59.48;99875.69;4409065;32;19985;-82
2021/12/20 11:36:08;;;;;;;;;;;;;;;5.59;59.49;99875.53;4408858;32;20000;-82
2021/12/20 11:38:34;;;;;;;;;;;;;;;5.61;59.48;99871.22;4408961;32;23429;-83
2021/12/20 11:41:00;;;;;;;;;;;;;;;5.61;59.48;99866.06;4408889;32;20000;-83
2021/12/20 11:43:26;;;;;;;;;;;;;;;5.49;59.48;99879.94;4409085;32;19974;-82
2021/12/20 11:45:51;;;;;;;;;;;;;;;5.63;59.49;99879.78;4422138;32;22441;-83
2021/12/20 11:48:16;;;;;;;;;;;;;;;5.90;59.50;99873.50;4422488;32;20437;-80
2021/12/20 11:50:43;;;;;;;;;;;;;;;5.89;59.50;99892.44;4381452;32;875977;-83
2021/12/20 11:53:09;;;;;;;;;;;;;;;6.11;59.51;99881.03;4408943;32;20003;-83
2021/12/20 11:55:34;;;;;;;;;;;;;;;6.21;59.53;99879.22;4408875;32;20027;-85
2021/12/20 11:58:00;;;;;;;;;;;;;;;6.26;59.52;99883.44;4408523;32;20382;-82
2021/12/20 12:00:31;;;;;;;;;;;;;;;6.52;59.55;99875.34;4408457;32;20012;-82
2021/12/20 12:02:58;;;;;;;;;;;;;;;6.55;59.54;99877.03;4421694;32;19973;-82
2021/12/20 12:05:30;;;;;;;;;;;;;;;6.57;59.54;99870.09;4408913;32;19985;-83
2021/12/20 12:08:15;;;;;;;;;;;;;;;6.42;59.54;99879.78;4421345;32;20402;-83
2021/12/20 12:10:41;;;;;;;;;;;;;;;6.31;59.52;99863.53;4423993;32;20012;-82
2021/12/20 12:13:14;;;;;;;;;;;;;;;6.27;59.52;99873.94;4423775;32;21318;-83
2021/12/20 12:16:16;;;;;;;;;;;;;;;6.42;59.54;99879.78;4423389;32;19993;-82
2021/12/20 12:18:45;;;;;;;;;;;;;;;6.69;59.55;99872.53;4424407;32;19985;-83
2021/12/20 12:21:29;;;;;;;;;;;;;;;6.24;59.52;99879.16;4424286;32;19993;-82
2021/12/20 12:23:54;;;;;;;;;;;;;;;6.31;59.53;99870.44;4425303;32;20254;-82
2021/12/20 12:26:30;;;;;;;;;;;;;;;5.94;59.51;99876.06;4425774;32;19970;-83
2021/12/20 12:28:56;;;;;;;;;;;;;;;5.89;59.50;99889.84;4425166;32;19985;-83
2021/12/20 12:31:21;;;;;;;;;;;;;;;5.96;59.51;99868.31;4425958;32;20007;-82
2021/12/20 12:33:46;;;;;;;;;;;;;;;6.05;59.51;99878.53;4425868;32;20235;-83
2021/12/20 12:36:23;;;;;;;;;;;;;;;6.12;59.51;99883.59;4425696;32;19989;-82
2021/12/20 12:38:50;;;;;;;;;;;;;;;6.10;59.52;99881.91;4425778;32;20387;-82
2021/12/20 12:41:26;;;;;;;;;;;;;;;5.99;59.51;99882.03;4425893;32;20009;-83
2021/12/20 12:43:54;;;;;;;;;;;;;;;6.12;59.51;99883.59;4425322;32;19985;-81
2021/12/20 12:46:53;;;;;;;;;;;;;;;6.34;59.53;99881.59;4438283;32;20338;-83
2021/12/20 12:49:21;;;;;;;;;;;;;;;6.47;59.54;99908.16;4399665;32;20051;-83
2021/12/20 12:51:53;;;;;;;;;;;;;;;6.27;59.52;99881.72;4438469;32;20006;-83
2021/12/20 12:54:30;;;;;;;;;;;;;;;6.04;59.51;99892.31;4425249;32;19978;-83
2021/12/20 12:57:08;;;;;;;;;;;;;;;5.96;59.51;99895.00;4439292;32;19970;-79
2021/12/20 12:59:33;;;;;;;;;;;;;;;6.12;59.51;99896.50;4425360;32;19977;-82
2021/12/20 13:02:06;;;;;;;;;;;;;;;6.12;59.51;99908.56;4425412;32;20004;-82
2021/12/20 13:04:58;;;;;;;;;;;;;;;5.94;59.51;99907.09;4425363;32;20026;-83
2021/12/20 13:07:23;;;;;;;;;;;;;;;5.77;59.50;99919.28;4422554;32;20349;-83
2021/12/20 13:09:49;;;;;;;;;;;;;;;5.49;59.48;99916.09;4438079;32;19997;-83
2021/12/20 13:12:18;;;;;;;;;;;;;;;5.53;59.49;99920.34;4425549;32;20028;-82
2021/12/20 13:14:50;;;;;;;;;;;;;;;5.59;59.49;99915.13;4425728;32;19988;-82
2021/12/20 13:17:27;;;;;;;;;;;;;;;5.70;59.50;99930.53;4425240;32;20000;-84
2021/12/20 13:19:56;;;;;;;;;;;;;;;5.66;59.49;99927.09;4425372;32;20017;-83
2021/12/20 13:22:21;;;;;;;;;;;;;;;5.75;59.49;99936.50;4425292;32;20006;-82